createdAt,value
2018-10-02T09:29:57.796Z,9.0
2018-10-02T10:45:28.365Z,9.8
2018-10-02T11:23:21.107Z,10.1
2018-10-02T11:35:15.019Z,10.3
2018-10-02T11:46:10.066Z,10.5
2018-10-02T11:56:24.369Z,10.5
2018-10-02T12:07:23.148Z,10.6
2018-10-02T12:29:13.693Z,10.8
2018-10-02T12:41:10.739Z,11.1
2018-10-02T12:51:25.653Z,11.1
2018-10-02T13:02:13.569Z,11.5
2018-10-02T13:12:28.685Z,11.5
2018-10-02T13:25:38.938Z,12.1
2018-10-02T13:35:53.259Z,12.0
2018-10-02T13:59:06.181Z,12.7
2018-10-02T14:38:50.801Z,13.6
2018-10-02T14:50:24.207Z,13.7
2018-10-02T15:02:35.146Z,13.9
2018-10-02T15:14:38.004Z,14.1
2018-10-02T15:48:30.232Z,14.6
2018-10-02T16:00:15.669Z,14.5
2018-10-02T16:13:26.890Z,14.3
2018-10-02T16:25:56.611Z,14.1
2018-10-02T16:37:49.711Z,14.0
2018-10-02T16:48:05.331Z,14.0
2018-10-02T16:58:33.777Z,13.8
2018-10-02T17:10:09.374Z,13.5
2018-10-02T17:21:45.072Z,13.4
2018-10-02T17:34:00.989Z,13.2
2018-10-02T17:46:01.646Z,13.0
2018-10-02T17:56:43.529Z,13.0
2018-10-02T18:06:59.626Z,12.9
2018-10-02T18:19:26.316Z,12.6
2018-10-02T19:03:20.544Z,11.8
2018-10-02T19:14:47.355Z,11.7
2018-10-02T19:25:05.033Z,11.6
2018-10-02T19:36:51.386Z,11.3
2018-10-02T19:48:20.611Z,11.1
2018-10-02T20:15:10.740Z,10.8
2018-10-02T20:26:24.402Z,10.7
2018-10-02T20:40:03.486Z,10.6
2018-10-02T20:54:25.718Z,10.4
2018-10-02T21:05:41.352Z,10.2
2018-10-02T21:15:55.247Z,10.2
2018-10-02T21:26:33.200Z,10.1
2018-10-02T21:37:07.051Z,10.0
2018-10-02T21:47:49.763Z,9.9
2018-10-02T21:58:44.331Z,9.6
2018-10-02T22:09:31.794Z,9.6
2018-10-02T22:20:17.582Z,9.5
2018-10-02T22:31:03.277Z,9.4
2018-10-02T22:41:49.677Z,9.3
2018-10-02T22:52:04.362Z,9.3
2018-10-02T23:02:18.459Z,9.3
2018-10-02T23:23:37.456Z,9.1
2018-10-02T23:33:51.192Z,9.0
2018-10-02T23:44:06.222Z,8.9
2018-10-02T23:54:28.551Z,8.9
